Kitakyushu, Japan
Current Conditions -  °F | °C
As of 12:00 AM on Sunday 26 Oct 2014 (Local Time) from RJFR Reporting Station
Few Clouds Few Clouds  
Wind Chill: 64°   Ceiling: Unl
Heat Index: 64°   Visibility: 6mi
Dew Point: 63°   Wind: 3mph
Humidity: 94%   Direction: 300°WNW
Pressure: 30.12"   Gusts: NA
Location:  33.88°N, 130.86°E
Report Text: RJFR 251500Z 30003KT 9999 FEW020 18/17 Q1020
Loading
Personal Weather Stations






























Interactive Weather Map
Tropical Storm Tracking
New forecast layout! Learn more

10-Day Weather Forecast

Advertisements
Track Severe Weather on mobile